Time;durP1;ratioP1;P1;durP2;ratioP2;P2;SDS_P1;SDS_P2;PMS_P1;PMS_P2;Temp;Humidity;BMP_temperature;BMP_pressure;BME280_temperature;BME280_humidity;BME280_pressure;Samples;Min_cycle;Max_cycle;Signal;HPM_P1;HPM_P2
2023/07/25 00:00:31;;;;;;;83.97;52.92;;;18.90;84.30;;;;;;4975794;28;91754;-80
2023/07/25 00:02:56;;;;;;;82.93;52.85;;;19.00;84.70;;;;;;4977055;28;91255;-79
2023/07/25 00:05:22;;;;;;;83.05;52.92;;;18.90;84.50;;;;;;4985054;28;91387;-79
2023/07/25 00:07:47;;;;;;;83.60;52.53;;;18.90;84.60;;;;;;4986259;28;89491;-79
2023/07/25 00:10:13;;;;;;;82.50;52.55;;;18.90;84.40;;;;;;4981306;28;94001;-79
2023/07/25 00:12:39;;;;;;;82.22;52.50;;;18.90;84.60;;;;;;4977542;28;89534;-79
2023/07/25 00:15:05;;;;;;;83.50;52.63;;;18.90;84.60;;;;;;4977807;28;89767;-80
2023/07/25 00:17:31;;;;;;;83.78;52.72;;;18.90;84.70;;;;;;4984858;28;89798;-79
2023/07/25 00:19:56;;;;;;;83.63;52.75;;;18.80;84.50;;;;;;4985411;28;92172;-80
2023/07/25 00:22:22;;;;;;;83.13;52.58;;;18.90;84.60;;;;;;4979628;28;90810;-80
2023/07/25 00:24:48;;;;;;;82.55;52.55;;;18.90;84.40;;;;;;4982447;28;90923;-80
2023/07/25 00:27:14;;;;;;;83.82;52.58;;;18.90;84.50;;;;;;4980170;28;92428;-80
2023/07/25 00:29:40;;;;;;;83.68;52.60;;;18.90;84.40;;;;;;4983382;28;90022;-79
2023/07/25 00:32:06;;;;;;;83.45;52.67;;;18.90;84.50;;;;;;4978027;28;91304;-79
2023/07/25 00:34:31;;;;;;;82.72;52.65;;;18.90;84.60;;;;;;4978811;28;90702;-79
2023/07/25 00:36:57;;;;;;;83.63;52.50;;;18.90;84.50;;;;;;4977367;28;96128;-80
2023/07/25 00:39:23;;;;;;;82.82;52.42;;;18.80;84.60;;;;;;4980068;28;94092;-79
2023/07/25 00:41:48;;;;;;;84.05;52.22;;;18.80;84.30;;;;;;4982991;28;90611;-79
2023/07/25 00:44:14;;;;;;;82.05;52.35;;;18.80;84.50;;;;;;4982931;28;89944;-79
2023/07/25 00:46:43;;;;;;;82.55;52.42;;;18.80;84.20;;;;;;4978536;28;92642;-78
2023/07/25 00:49:09;;;;;;;83.88;52.33;;;18.80;84.30;;;;;;4994215;27;92511;-78
2023/07/25 00:51:35;;;;;;;83.57;52.33;;;18.80;84.30;;;;;;4986099;28;90472;-78
2023/07/25 00:54:01;;;;;;;83.75;52.90;;;18.80;84.30;;;;;;4981967;28;90467;-78
2023/07/25 00:56:30;;;;;;;82.22;52.30;;;18.70;84.40;;;;;;4985853;28;89434;-79
2023/07/25 00:58:55;;;;;;;82.53;52.72;;;18.80;84.40;;;;;;4981863;28;90636;-79
2023/07/25 01:01:22;;;;;;;82.60;52.83;;;18.80;84.50;;;;;;4986601;28;89916;-78
2023/07/25 01:03:48;;;;;;;84.88;52.65;;;18.70;84.10;;;;;;4984158;28;91171;-79
2023/07/25 01:06:17;;;;;;;83.38;52.65;;;18.80;84.20;;;;;;4987511;28;88814;-79
2023/07/25 01:08:55;;;;;;;83.15;52.83;;;18.80;84.20;;;;;;4980984;28;91541;-79
2023/07/25 01:11:22;;;;;;;83.72;52.67;;;18.70;84.30;;;;;;4984355;28;93133;-79
2023/07/25 01:13:49;;;;;;;84.53;52.75;;;18.70;84.40;;;;;;4988197;28;90584;-79
2023/07/25 01:16:22;;;;;;;83.65;52.83;;;18.70;84.60;;;;;;4985895;28;89902;-80
2023/07/25 01:18:49;;;;;;;82.93;52.53;;;18.70;84.60;;;;;;4984066;28;93687;-80
2023/07/25 01:21:14;;;;;;;83.75;52.53;;;18.60;84.20;;;;;;4987446;28;89861;-80
2023/07/25 01:23:41;;;;;;;83.63;52.75;;;18.60;84.50;;;;;;4988059;28;89526;-80
2023/07/25 01:26:07;;;;;;;83.78;52.75;;;18.60;84.20;;;;;;4984202;28;90664;-79
2023/07/25 01:28:32;;;;;;;83.28;52.55;;;18.60;84.50;;;;;;4986979;28;91687;-80
2023/07/25 01:30:58;;;;;;;85.28;52.85;;;18.60;84.30;;;;;;4984502;28;89468;-80
2023/07/25 01:33:24;;;;;;;84.63;52.80;;;18.50;84.60;;;;;;4990565;28;89513;-79
2023/07/25 01:35:49;;;;;;;82.32;52.45;;;18.50;84.70;;;;;;4988902;28;90970;-80
2023/07/25 01:38:15;;;;;;;83.43;52.72;;;18.50;85.20;;;;;;4980999;28;93279;-80
2023/07/25 01:40:41;;;;;;;82.70;52.78;;;18.50;85.40;;;;;;4985717;28;91261;-79
2023/07/25 01:43:08;;;;;;;82.75;52.45;;;18.50;85.70;;;;;;4987158;28;91319;-79
2023/07/25 01:45:34;;;;;;;85.43;52.67;;;18.40;86.10;;;;;;4981777;28;89753;-79
2023/07/25 01:48:00;;;;;;;83.43;52.63;;;18.40;85.60;;;;;;4986995;28;93299;-79
2023/07/25 01:50:29;;;;;;;82.82;52.83;;;18.40;85.30;;;;;;4984464;28;90492;-79
2023/07/25 01:52:55;;;;;;;82.70;52.72;;;18.40;85.20;;;;;;4984852;28;89365;-79
2023/07/25 01:55:20;;;;;;;84.53;52.92;;;18.40;85.30;;;;;;4981475;28;93433;-79
2023/07/25 01:57:46;;;;;;;84.22;52.75;;;18.40;85.60;;;;;;4980515;28;90877;-79
2023/07/25 02:00:12;;;;;;;86.13;52.78;;;18.30;85.50;;;;;;4984195;28;91851;-78
2023/07/25 02:02:38;;;;;;;84.50;52.85;;;18.40;85.40;;;;;;4982090;28;90404;-79
2023/07/25 02:05:04;;;;;;;82.35;52.63;;;18.30;85.50;;;;;;4983102;28;89984;-79
2023/07/25 02:07:30;;;;;;;82.95;52.75;;;18.30;85.30;;;;;;4980124;28;91462;-79
2023/07/25 02:09:56;;;;;;;83.28;52.90;;;18.30;85.40;;;;;;4980529;28;89826;-78
2023/07/25 02:12:22;;;;;;;83.57;53.13;;;18.30;85.30;;;;;;4979358;28;91388;-79
2023/07/25 02:14:47;;;;;;;82.72;52.55;;;18.30;85.60;;;;;;4980962;28;91160;-79
2023/07/25 02:17:13;;;;;;;83.55;52.83;;;18.20;85.30;;;;;;4981712;28;93230;-79
2023/07/25 02:19:39;;;;;;;83.65;52.63;;;18.20;85.50;;;;;;4982154;28;89703;-79
2023/07/25 02:22:05;;;;;;;82.88;52.70;;;18.20;85.50;;;;;;4978401;28;90267;-80
2023/07/25 02:24:31;;;;;;;82.93;52.55;;;18.20;85.70;;;;;;4980583;28;91265;-79
2023/07/25 02:26:57;;;;;;;83.57;52.72;;;18.20;85.60;;;;;;4982539;28;95336;-80
2023/07/25 02:29:23;;;;;;;82.72;52.60;;;18.20;85.60;;;;;;4983777;28;92544;-79
2023/07/25 02:31:48;;;;;;;82.68;52.63;;;18.20;85.40;;;;;;4980720;28;89824;-79
2023/07/25 02:34:17;;;;;;;84.68;52.42;;;18.20;85.50;;;;;;4976446;28;90821;-79
2023/07/25 02:36:43;;;;;;;83.28;52.53;;;18.20;85.60;;;;;;4982650;28;94429;-79
2023/07/25 02:39:08;;;;;;;82.65;52.83;;;18.20;85.60;;;;;;4982508;28;91758;-79
2023/07/25 02:41:35;;;;;;;85.20;52.83;;;18.10;85.50;;;;;;4979613;28;91657;-79
2023/07/25 02:44:00;;;;;;;83.07;52.88;;;18.10;85.40;;;;;;4980144;28;89601;-80
2023/07/25 02:46:26;;;;;;;82.25;52.65;;;18.10;85.50;;;;;;4981292;28;89574;-80
2023/07/25 02:48:52;;;;;;;82.13;52.45;;;18.20;85.50;;;;;;4978604;28;89604;-79
2023/07/25 02:51:17;;;;;;;84.03;53.03;;;18.10;85.40;;;;;;4983545;28;90517;-79
2023/07/25 02:53:43;;;;;;;83.13;52.88;;;18.10;85.40;;;;;;4977653;28;91542;-80
2023/07/25 02:56:09;;;;;;;82.13;52.65;;;18.10;85.30;;;;;;4977350;28;93666;-80
2023/07/25 02:58:35;;;;;;;82.32;53.00;;;18.10;85.30;;;;;;4978128;28;93827;-80
2023/07/25 03:01:00;;;;;;;83.07;53.03;;;18.10;85.40;;;;;;4980329;28;91054;-80
2023/07/25 03:03:26;;;;;;;83.70;52.58;;;18.00;85.40;;;;;;4985896;28;90027;-79
2023/07/25 03:05:51;;;;;;;83.00;52.60;;;18.10;85.50;;;;;;4980343;28;94464;-79
2023/07/25 03:08:17;;;;;;;84.35;52.83;;;18.10;85.60;;;;;;4980045;28;88639;-80
2023/07/25 03:10:42;;;;;;;82.65;52.80;;;18.00;85.50;;;;;;4985299;28;91324;-80
2023/07/25 03:13:08;;;;;;;82.00;52.85;;;18.10;85.50;;;;;;4983351;28;92905;-80
2023/07/25 03:15:34;;;;;;;82.10;52.55;;;18.00;85.70;;;;;;4979011;28;93301;-79
2023/07/25 03:17:59;;;;;;;83.40;52.55;;;18.00;85.40;;;;;;4982330;28;91665;-80
2023/07/25 03:20:25;;;;;;;82.03;52.58;;;18.00;85.60;;;;;;4983908;28;90241;-80
2023/07/25 03:22:51;;;;;;;82.57;52.50;;;18.00;85.50;;;;;;4987273;28;90558;-80
2023/07/25 03:25:16;;;;;;;82.70;52.83;;;18.00;85.60;;;;;;4981152;28;92698;-79
2023/07/25 03:27:42;;;;;;;81.60;52.40;;;18.00;85.50;;;;;;4982154;28;89525;-79
2023/07/25 03:30:08;;;;;;;82.20;52.70;;;18.00;85.60;;;;;;4984720;28;90246;-79
2023/07/25 03:32:33;;;;;;;83.45;52.55;;;18.00;85.70;;;;;;4984255;28;88962;-80
2023/07/25 03:34:59;;;;;;;81.68;52.75;;;18.00;85.50;;;;;;4985482;28;90002;-79
2023/07/25 03:37:24;;;;;;;82.22;52.85;;;18.00;85.60;;;;;;4985125;28;94963;-79
2023/07/25 03:39:50;;;;;;;83.05;53.03;;;17.90;85.40;;;;;;4980965;28;91981;-80
2023/07/25 03:42:15;;;;;;;84.28;52.83;;;18.00;85.40;;;;;;4979922;28;91284;-79
2023/07/25 03:44:41;;;;;;;82.15;52.95;;;17.90;85.50;;;;;;4983888;28;91052;-79
2023/07/25 03:47:07;;;;;;;82.28;52.80;;;18.00;85.50;;;;;;4983513;28;92437;-79
2023/07/25 03:49:32;;;;;;;82.25;52.65;;;17.90;85.40;;;;;;4981958;28;91167;-80
2023/07/25 03:51:58;;;;;;;83.75;52.75;;;17.90;85.40;;;;;;4984510;28;89546;-79
2023/07/25 03:54:25;;;;;;;81.95;52.78;;;17.90;85.50;;;;;;4978808;28;89631;-79
2023/07/25 03:56:51;;;;;;;82.80;52.88;;;17.90;85.30;;;;;;4985226;28;89517;-80
2023/07/25 03:59:17;;;;;;;81.95;53.28;;;17.90;85.30;;;;;;4983790;28;91194;-79
2023/07/25 04:01:43;;;;;;;83.20;53.65;;;17.90;85.20;;;;;;4976524;28;90069;-79
2023/07/25 04:04:09;;;;;;;82.15;53.00;;;17.90;85.30;;;;;;4975940;28;91044;-77
2023/07/25 04:06:34;;;;;;;83.80;53.42;;;17.90;85.60;;;;;;4979261;28;90855;-78
2023/07/25 04:09:00;;;;;;;83.15;53.47;;;17.90;85.50;;;;;;4981364;28;89537;-78
2023/07/25 04:11:25;;;;;;;82.53;53.20;;;17.90;85.80;;;;;;4980010;28;92320;-78
2023/07/25 04:13:51;;;;;;;81.85;52.97;;;17.90;85.50;;;;;;4976287;28;93022;-78
2023/07/25 04:16:17;;;;;;;83.90;53.45;;;17.80;85.60;;;;;;4976767;28;91451;-78
2023/07/25 04:18:42;;;;;;;83.93;53.22;;;17.80;85.70;;;;;;4979582;28;90181;-79
2023/07/25 04:21:08;;;;;;;82.90;53.50;;;17.90;85.60;;;;;;4987954;28;90874;-79
2023/07/25 04:23:33;;;;;;;83.40;53.33;;;17.90;85.60;;;;;;4985898;28;92854;-79
2023/07/25 04:25:59;;;;;;;83.75;53.47;;;17.90;85.60;;;;;;4985355;28;90648;-79
2023/07/25 04:28:25;;;;;;;83.50;53.17;;;17.80;85.60;;;;;;4981074;28;90503;-79
2023/07/25 04:30:50;;;;;;;83.03;53.03;;;17.80;85.40;;;;;;4982540;28;90003;-79
2023/07/25 04:33:16;;;;;;;82.47;52.80;;;17.80;85.60;;;;;;4985213;28;90614;-79
2023/07/25 04:35:45;;;;;;;84.78;53.17;;;17.80;85.50;;;;;;4987077;28;89390;-79
2023/07/25 04:38:14;;;;;;;82.40;53.08;;;17.80;85.40;;;;;;4989108;28;89876;-78
2023/07/25 04:40:39;;;;;;;84.80;52.97;;;17.80;85.40;;;;;;4983413;28;90070;-78
2023/07/25 04:43:05;;;;;;;83.80;53.30;;;17.80;85.60;;;;;;4986203;28;89571;-78
2023/07/25 04:45:31;;;;;;;84.95;52.97;;;17.80;85.40;;;;;;4985558;28;91383;-78
2023/07/25 04:47:56;;;;;;;81.97;52.97;;;17.80;85.40;;;;;;4981020;28;91226;-78
2023/07/25 04:50:22;;;;;;;83.25;53.05;;;17.80;85.30;;;;;;4982631;28;90670;-78
2023/07/25 04:52:47;;;;;;;82.68;53.25;;;17.80;85.50;;;;;;4985854;28;90853;-79
2023/07/25 04:55:13;;;;;;;85.13;53.35;;;17.80;85.30;;;;;;4984937;28;89855;-79
2023/07/25 04:57:38;;;;;;;82.97;53.42;;;17.80;85.50;;;;;;4984516;28;89546;-78
2023/07/25 05:00:05;;;;;;;83.97;53.08;;;17.80;85.70;;;;;;4985427;28;89662;-78
2023/07/25 05:02:31;;;;;;;83.30;52.97;;;17.80;85.40;;;;;;4984389;28;91492;-79
2023/07/25 05:04:57;;;;;;;82.00;52.75;;;17.80;85.40;;;;;;4982794;28;89851;-79
2023/07/25 05:07:22;;;;;;;86.18;53.00;;;17.80;85.60;;;;;;4984758;28;89911;-78
2023/07/25 05:09:48;;;;;;;81.97;52.83;;;17.70;85.90;;;;;;4986365;28;88795;-78
2023/07/25 05:12:14;;;;;;;83.78;53.35;;;17.70;86.30;;;;;;4980579;28;90208;-79
2023/07/25 05:14:40;;;;;;;84.78;52.65;;;17.80;86.00;;;;;;4982746;28;91213;-77
2023/07/25 05:17:06;;;;;;;84.35;53.05;;;17.70;85.70;;;;;;4981997;28;90716;-79
2023/07/25 05:19:31;;;;;;;83.10;52.63;;;17.70;85.30;;;;;;4983812;28;89517;-78
2023/07/25 05:21:57;;;;;;;82.25;52.53;;;17.70;87.20;;;;;;4985196;28;89716;-78
2023/07/25 05:24:25;;;;;;;82.65;52.75;;;17.70;85.80;;;;;;4983356;28;90204;-79
2023/07/25 05:26:51;;;;;;;84.60;52.85;;;17.70;85.10;;;;;;4988005;28;90092;-79
2023/07/25 05:29:17;;;;;;;83.63;52.95;;;17.70;86.10;;;;;;4991017;28;91716;-79
2023/07/25 05:31:43;;;;;;;82.43;53.00;;;17.80;85.60;;;;;;4985777;28;90005;-79
2023/07/25 05:34:08;;;;;;;82.82;53.05;;;17.80;85.10;;;;;;4986993;28;89161;-78
2023/07/25 05:36:34;;;;;;;82.82;53.03;;;17.80;85.10;;;;;;4985009;28;89687;-77
2023/07/25 05:39:00;;;;;;;83.78;53.45;;;17.70;85.00;;;;;;4982123;28;89871;-78
2023/07/25 05:41:25;;;;;;;84.07;53.08;;;17.80;84.90;;;;;;4981593;28;90584;-78
2023/07/25 05:43:51;;;;;;;83.07;53.15;;;17.80;85.00;;;;;;4983999;28;94113;-77
2023/07/25 05:46:16;;;;;;;85.55;53.63;;;17.80;84.60;;;;;;4980036;28;90461;-78
2023/07/25 05:48:42;;;;;;;84.47;53.45;;;17.80;84.60;;;;;;4982949;28;90482;-78
2023/07/25 05:51:09;;;;;;;84.07;53.17;;;17.80;84.50;;;;;;4986221;28;93671;-78
2023/07/25 05:53:35;;;;;;;83.07;52.95;;;17.90;84.20;;;;;;4980880;28;89720;-79
2023/07/25 05:56:01;;;;;;;84.47;53.08;;;17.90;84.10;;;;;;4981371;28;89826;-77
2023/07/25 05:58:27;;;;;;;84.38;53.03;;;18.00;85.00;;;;;;4981142;28;89919;-78
2023/07/25 06:00:53;;;;;;;84.00;53.22;;;18.00;83.60;;;;;;4980990;28;89991;-77
2023/07/25 06:03:19;;;;;;;83.72;53.45;;;18.10;83.60;;;;;;4979592;28;90326;-79
2023/07/25 06:05:44;;;;;;;84.35;53.25;;;18.10;83.40;;;;;;4976094;28;90736;-78
2023/07/25 06:08:10;;;;;;;83.55;53.22;;;18.10;83.10;;;;;;4983172;28;89616;-78
2023/07/25 06:10:36;;;;;;;85.18;53.38;;;18.20;83.60;;;;;;4982822;28;89915;-80
2023/07/25 06:13:06;;;;;;;86.10;52.80;;;18.10;85.20;;;;;;4981701;28;91289;-77
2023/07/25 06:15:34;;;;;;;85.57;53.40;;;18.20;83.90;;;;;;4981761;28;89690;-79
2023/07/25 06:18:01;;;;;;;89.65;54.63;;;18.20;83.50;;;;;;4982871;28;90350;-79
2023/07/25 06:20:26;;;;;;;87.05;53.90;;;18.20;88.80;;;;;;4981850;28;90379;-78
2023/07/25 06:22:52;;;;;;;87.63;53.78;;;18.20;90.30;;;;;;4979463;28;89683;-77
2023/07/25 06:25:18;;;;;;;84.35;53.60;;;18.20;88.40;;;;;;4980463;28;90132;-77
2023/07/25 06:27:43;;;;;;;86.25;53.50;;;18.20;89.40;;;;;;4982155;28;94758;-76
2023/07/25 06:30:09;;;;;;;83.85;53.20;;;18.20;87.00;;;;;;4975736;28;91372;-77
2023/07/25 06:32:34;;;;;;;84.88;53.17;;;18.20;87.80;;;;;;4975229;28;90988;-76
2023/07/25 06:35:00;;;;;;;86.30;53.63;;;18.30;86.90;;;;;;4982280;28;89751;-77
2023/07/25 06:37:26;;;;;;;86.30;53.75;;;18.30;89.40;;;;;;4981951;28;90976;-78
2023/07/25 06:39:51;;;;;;;85.15;53.25;;;18.30;89.30;;;;;;4978050;28;90784;-79
2023/07/25 06:42:17;;;;;;;83.05;52.53;;;18.40;86.90;;;;;;4980791;28;93052;-78
2023/07/25 06:44:43;;;;;;;85.25;53.25;;;18.30;84.30;;;;;;4982921;28;89878;-77
2023/07/25 06:47:08;;;;;;;83.35;52.60;;;18.40;84.10;;;;;;4981019;28;90683;-78
2023/07/25 06:49:34;;;;;;;86.57;53.70;;;18.40;84.40;;;;;;4977823;28;90269;-78
2023/07/25 06:52:00;;;;;;;87.97;53.47;;;18.50;88.50;;;;;;4982228;28;90864;-78
2023/07/25 06:54:26;;;;;;;87.18;53.35;;;18.50;85.30;;;;;;4981353;28;91251;-78
2023/07/25 06:56:51;;;;;;;88.00;53.60;;;18.50;84.40;;;;;;4977822;28;89912;-78
2023/07/25 06:59:17;;;;;;;89.72;53.75;;;18.50;84.70;;;;;;4977704;28;91329;-78
2023/07/25 07:01:43;;;;;;;87.38;53.88;;;18.60;85.70;;;;;;4975364;28;91602;-79
2023/07/25 07:04:08;;;;;;;86.28;53.58;;;18.60;84.70;;;;;;4981384;28;90973;-79
2023/07/25 07:06:34;;;;;;;89.15;53.85;;;18.60;87.10;;;;;;4985201;28;89628;-79
2023/07/25 07:09:00;;;;;;;89.50;53.50;;;18.70;88.20;;;;;;4980498;28;89566;-79
2023/07/25 07:11:25;;;;;;;86.97;53.38;;;18.70;86.70;;;;;;4979869;28;90016;-79
2023/07/25 07:13:51;;;;;;;84.95;53.08;;;18.80;87.90;;;;;;4984399;28;93308;-79
2023/07/25 07:16:17;;;;;;;88.50;53.75;;;18.80;85.60;;;;;;4985925;28;90395;-79
2023/07/25 07:18:43;;;;;;;85.28;53.25;;;18.90;85.70;;;;;;4980219;28;90828;-79
2023/07/25 07:21:08;;;;;;;86.82;52.85;;;18.90;86.00;;;;;;4984422;28;91565;-79
2023/07/25 07:23:34;;;;;;;84.63;53.00;;;18.90;82.40;;;;;;4978403;28;92576;-79
2023/07/25 07:26:00;;;;;;;86.32;53.53;;;18.90;83.10;;;;;;4981393;28;91058;-79
2023/07/25 07:28:25;;;;;;;85.68;53.28;;;19.00;83.60;;;;;;4978947;28;91570;-79
2023/07/25 07:30:51;;;;;;;85.45;53.00;;;19.10;81.70;;;;;;4979089;28;93876;-78
2023/07/25 07:33:20;;;;;;;89.40;53.45;;;19.10;81.30;;;;;;4978874;28;90252;-78
2023/07/25 07:35:46;;;;;;;87.53;53.40;;;19.10;82.50;;;;;;4980361;28;89551;-79
2023/07/25 07:38:12;;;;;;;84.65;53.00;;;19.10;84.30;;;;;;4977464;28;93913;-78
2023/07/25 07:40:38;;;;;;;85.88;53.15;;;19.10;81.90;;;;;;4978522;28;90882;-78
2023/07/25 07:43:03;;;;;;;84.10;52.55;;;19.10;81.60;;;;;;4984011;28;92385;-79
2023/07/25 07:45:30;;;;;;;85.00;52.67;;;19.20;81.80;;;;;;4979871;28;94355;-79
2023/07/25 07:47:56;;;;;;;84.38;52.88;;;19.10;81.50;;;;;;4977439;28;89393;-79
2023/07/25 07:50:22;;;;;;;83.93;52.72;;;19.10;81.60;;;;;;4980160;28;91644;-79
2023/07/25 07:52:48;;;;;;;83.47;52.47;;;19.20;81.80;;;;;;4982484;28;89960;-79
2023/07/25 07:55:15;;;;;;;85.15;53.13;;;19.20;82.00;;;;;;4984281;28;89987;-78
2023/07/25 07:57:45;;;;;;;85.32;53.03;;;19.20;82.20;;;;;;4986629;28;89980;-79
2023/07/25 08:00:13;;;;;;;84.30;53.05;;;19.20;81.10;;;;;;4983763;28;89521;-79
2023/07/25 08:02:40;;;;;;;87.43;53.25;;;19.30;81.60;;;;;;4982035;28;89863;-79
2023/07/25 08:05:06;;;;;;;85.85;52.97;;;19.30;81.30;;;;;;4982012;28;90425;-79
2023/07/25 08:07:32;;;;;;;84.72;52.67;;;19.30;81.90;;;;;;4979585;28;95085;-79
2023/07/25 08:09:57;;;;;;;86.32;53.15;;;19.30;81.20;;;;;;4984355;28;90496;-79
2023/07/25 08:12:23;;;;;;;85.00;52.90;;;19.40;81.50;;;;;;4978367;28;90186;-78
2023/07/25 08:14:49;;;;;;;87.30;53.00;;;19.40;80.50;;;;;;4982879;28;89237;-79
2023/07/25 08:17:18;;;;;;;88.70;53.15;;;19.40;81.80;;;;;;4983509;28;89717;-79
2023/07/25 08:19:44;;;;;;;84.65;53.00;;;19.50;81.30;;;;;;4983885;28;90439;-79
2023/07/25 08:22:10;;;;;;;83.68;53.08;;;19.50;83.50;;;;;;4985225;28;91301;-80
2023/07/25 08:24:36;;;;;;;85.07;52.78;;;19.40;82.20;;;;;;4986530;28;89188;-80
2023/07/25 08:27:03;;;;;;;84.88;52.88;;;19.40;81.40;;;;;;4986550;28;89754;-80
2023/07/25 08:29:28;;;;;;;85.43;52.65;;;19.40;82.80;;;;;;4983816;28;89953;-79
2023/07/25 08:31:54;;;;;;;84.38;52.70;;;19.30;82.90;;;;;;4986142;28;94701;-79
2023/07/25 08:34:20;;;;;;;83.32;52.42;;;19.30;83.50;;;;;;4984316;28;90309;-79
2023/07/25 08:36:46;;;;;;;83.40;52.65;;;19.30;83.20;;;;;;4985145;28;90075;-79
2023/07/25 08:39:12;;;;;;;84.40;52.35;;;19.20;82.30;;;;;;4984920;28;89781;-78
2023/07/25 08:41:45;;;;;;;84.65;52.53;;;19.20;82.00;;;;;;4986604;28;89904;-79
2023/07/25 08:44:12;;;;;;;84.00;52.50;;;19.20;82.10;;;;;;4985947;28;89971;-79
2023/07/25 08:46:43;;;;;;;84.57;52.83;;;19.20;82.10;;;;;;4982393;28;89746;-78
2023/07/25 08:49:14;;;;;;;83.93;52.83;;;19.20;81.90;;;;;;4981264;28;89370;-78
2023/07/25 08:51:42;;;;;;;84.60;52.53;;;19.20;81.80;;;;;;4981380;28;89912;-79
2023/07/25 08:54:22;;;;;;;84.47;52.65;;;19.20;81.80;;;;;;4980433;28;90003;-78
2023/07/25 08:56:48;;;;;;;83.93;52.58;;;19.20;81.60;;;;;;4983091;28;90632;-78
2023/07/25 08:59:14;;;;;;;85.68;52.60;;;19.20;81.40;;;;;;4980376;28;90540;-79
2023/07/25 09:01:40;;;;;;;83.40;52.70;;;19.20;81.20;;;;;;4982298;28;90090;-79
2023/07/25 09:04:08;;;;;;;83.72;52.70;;;19.20;81.10;;;;;;4988076;28;90432;-79
2023/07/25 09:06:33;;;;;;;85.28;52.33;;;19.20;80.90;;;;;;4985686;28;89754;-79
2023/07/25 09:09:00;;;;;;;85.15;52.92;;;19.30;80.90;;;;;;4985894;28;90057;-79
2023/07/25 09:11:26;;;;;;;83.72;52.75;;;19.30;80.60;;;;;;4981469;28;90012;-79
2023/07/25 09:13:51;;;;;;;84.07;52.67;;;19.40;80.30;;;;;;4978881;28;92708;-79
2023/07/25 09:16:17;;;;;;;84.90;52.78;;;19.40;80.20;;;;;;4985551;28;89604;-78
2023/07/25 09:18:43;;;;;;;84.72;53.08;;;19.40;80.30;;;;;;4984759;28;90401;-79
2023/07/25 09:21:08;;;;;;;83.22;52.83;;;19.40;80.30;;;;;;4983601;28;91030;-79
2023/07/25 09:23:34;;;;;;;85.20;52.67;;;19.50;80.40;;;;;;4985852;28;89594;-78
2023/07/25 09:26:06;;;;;;;85.13;53.10;;;19.50;80.60;;;;;;4983648;28;89754;-79
2023/07/25 09:28:32;;;;;;;85.22;52.67;;;19.50;80.40;;;;;;4983225;28;90941;-79
2023/07/25 09:31:04;;;;;;;85.00;52.90;;;19.50;80.40;;;;;;4985030;28;90358;-79
2023/07/25 09:33:29;;;;;;;;;;;19.60;81.10;;;;;;4982541;28;90653;-79
2023/07/25 09:35:55;;;;;;;83.75;52.53;;;19.60;80.20;;;;;;4987913;28;90684;-77
2023/07/25 09:38:21;;;;;;;84.07;52.83;;;19.50;80.70;;;;;;4980695;28;91297;-78
2023/07/25 09:40:47;;;;;;;84.15;52.75;;;19.60;80.80;;;;;;4984013;28;91136;-78
2023/07/25 09:43:26;;;;;;;83.68;52.70;;;19.60;80.40;;;;;;4985993;28;90216;-79
2023/07/25 09:45:54;;;;;;;84.03;53.05;;;19.70;80.60;;;;;;4984230;28;92097;-79
2023/07/25 09:48:20;;;;;;;84.75;52.88;;;19.70;81.40;;;;;;4983453;28;91393;-79
2023/07/25 09:50:46;;;;;;;84.57;52.80;;;19.70;80.50;;;;;;4983349;28;90349;-79
2023/07/25 09:53:14;;;;;;;85.78;52.83;;;19.70;80.00;;;;;;4983465;28;89477;-79
2023/07/25 09:55:40;;;;;;;85.25;52.92;;;19.70;80.00;;;;;;4982375;28;89784;-79
2023/07/25 09:58:05;;;;;;;84.55;52.97;;;19.70;80.20;;;;;;4986831;28;89487;-79
2023/07/25 10:00:31;;;;;;;84.50;52.72;;;19.70;81.20;;;;;;4982327;28;89835;-78
2023/07/25 10:02:58;;;;;;;84.78;52.95;;;19.70;80.30;;;;;;4984864;28;89468;-79
2023/07/25 10:05:26;;;;;;;84.13;52.63;;;19.60;80.90;;;;;;4984253;28;89847;-79
2023/07/25 10:07:53;;;;;;;84.45;52.65;;;19.60;80.70;;;;;;4980011;28;90769;-78
2023/07/25 10:10:19;;;;;;;84.63;52.75;;;19.60;80.60;;;;;;4983119;28;90346;-78
2023/07/25 10:12:44;;;;;;;83.78;52.60;;;19.60;80.50;;;;;;4982883;28;92579;-78
2023/07/25 10:15:12;;;;;;;85.35;52.83;;;19.60;81.40;;;;;;4984822;28;92597;-79
2023/07/25 10:17:38;;;;;;;85.75;52.80;;;19.60;81.00;;;;;;4978620;28;90487;-79
2023/07/25 10:20:07;;;;;;;85.40;52.53;;;19.50;80.90;;;;;;4980396;28;89683;-79
2023/07/25 10:22:37;;;;;;;83.10;52.55;;;19.60;81.20;;;;;;4984014;28;89564;-79
2023/07/25 10:25:11;;;;;;;84.43;52.55;;;19.60;80.80;;;;;;4985546;28;92754;-79
2023/07/25 10:27:37;;;;;;;83.53;52.55;;;19.60;80.80;;;;;;4986067;28;89966;-78
2023/07/25 10:30:26;;;;;;;83.75;52.58;;;19.50;80.90;;;;;;4978106;28;90154;-79
2023/07/25 10:32:59;;;;;;;84.75;52.42;;;19.50;80.80;;;;;;4981675;28;90390;-79
2023/07/25 10:35:49;;;;;;;84.15;52.38;;;19.50;80.70;;;;;;4983976;28;93590;-78
2023/07/25 10:38:30;;;;;;;85.15;52.80;;;19.60;80.90;;;;;;4974628;28;92335;-79
2023/07/25 10:40:58;;;;;;;86.30;52.58;;;19.60;80.80;;;;;;4977986;28;90096;-78
2023/07/25 10:43:48;;;;;;;83.35;52.58;;;19.60;80.70;;;;;;4985460;28;90725;-78
2023/07/25 10:46:19;;;;;;;85.90;52.97;;;19.60;79.80;;;;;;4979807;28;91389;-78
2023/07/25 10:48:46;;;;;;;83.13;52.58;;;19.60;79.70;;;;;;4980434;28;90880;-78
2023/07/25 10:51:15;;;;;;;86.55;52.83;;;19.70;79.70;;;;;;4986677;28;89866;-78
2023/07/25 10:53:41;;;;;;;85.50;52.97;;;19.70;79.30;;;;;;4984534;28;89978;-78
2023/07/25 10:56:08;;;;;;;85.45;53.05;;;19.80;79.50;;;;;;4982506;28;89997;-79
2023/07/25 10:58:39;;;;;;;84.70;53.00;;;19.80;78.80;;;;;;4984628;28;90707;-78
2023/07/25 11:01:06;;;;;;;85.38;53.22;;;19.90;78.80;;;;;;4981498;28;90736;-78
2023/07/25 11:03:36;;;;;;;85.10;53.17;;;19.90;78.50;;;;;;4982603;28;91852;-78
2023/07/25 11:06:07;;;;;;;86.70;53.40;;;20.00;78.40;;;;;;4980192;28;90682;-79
2023/07/25 11:08:38;;;;;;;85.18;53.30;;;20.10;78.40;;;;;;4981671;28;90004;-78
2023/07/25 11:11:06;;;;;;;85.28;53.30;;;20.10;78.70;;;;;;4982519;28;89965;-78
2023/07/25 11:13:34;;;;;;;85.38;53.30;;;20.20;79.90;;;;;;4985408;28;92002;-78
2023/07/25 11:16:04;;;;;;;85.03;53.05;;;20.20;78.70;;;;;;4986656;28;92283;-78
2023/07/25 11:18:33;;;;;;;85.87;53.60;;;20.20;78.30;;;;;;4983013;28;90312;-78
2023/07/25 11:21:09;;;;;;;85.63;53.38;;;20.30;78.80;;;;;;4982620;28;89706;-78
2023/07/25 11:23:34;;;;;;;87.93;53.30;;;20.40;79.20;;;;;;4982065;28;90890;-79
2023/07/25 11:26:02;;;;;;;87.90;53.65;;;20.40;78.20;;;;;;4981750;28;92343;-78
2023/07/25 11:28:29;;;;;;;85.53;53.25;;;20.50;78.30;;;;;;4981338;28;93599;-78
2023/07/25 11:30:55;;;;;;;86.15;53.50;;;20.60;77.90;;;;;;4980184;28;90468;-77
2023/07/25 11:33:22;;;;;;;85.20;53.22;;;20.60;77.20;;;;;;4983281;28;89772;-77
2023/07/25 11:35:55;;;;;;;87.13;53.72;;;20.70;77.00;;;;;;4981385;28;90075;-77
2023/07/25 11:38:21;;;;;;;85.80;53.55;;;20.70;76.80;;;;;;4980912;28;92313;-77
2023/07/25 11:40:56;;;;;;;85.78;53.42;;;20.80;76.80;;;;;;4983753;28;90476;-77
2023/07/25 11:43:22;;;;;;;85.47;53.47;;;20.80;77.40;;;;;;4980494;28;89378;-78
2023/07/25 11:45:48;;;;;;;88.78;53.40;;;20.80;77.40;;;;;;4983334;28;89996;-77
2023/07/25 11:48:15;;;;;;;86.63;53.80;;;20.80;77.50;;;;;;4974688;28;90084;-77
2023/07/25 11:50:43;;;;;;;86.18;53.90;;;20.80;77.20;;;;;;4983351;28;91029;-77
2023/07/25 11:53:09;;;;;;;88.05;53.55;;;20.90;77.40;;;;;;4979589;28;90152;-78
2023/07/25 11:55:35;;;;;;;85.93;53.78;;;20.90;76.90;;;;;;4984279;28;90313;-77
2023/07/25 11:58:02;;;;;;;85.60;53.53;;;20.90;77.10;;;;;;4981841;28;89997;-77
2023/07/25 12:00:39;;;;;;;87.55;54.05;;;21.00;77.70;;;;;;4979849;28;90549;-78
2023/07/25 12:03:19;;;;;;;88.07;53.78;;;21.10;77.50;;;;;;4979665;28;90844;-77
2023/07/25 12:05:57;;;;;;;86.82;53.55;;;21.10;76.80;;;;;;4979668;28;90456;-77
2023/07/25 12:08:31;;;;;;;87.15;53.83;;;21.10;76.60;;;;;;4983796;28;89236;-77
2023/07/25 12:11:03;;;;;;;87.25;53.50;;;21.10;78.70;;;;;;4980008;28;91243;-77
2023/07/25 12:13:29;;;;;;;85.38;53.35;;;21.10;77.60;;;;;;4986012;28;90345;-77
2023/07/25 12:16:00;;;;;;;86.38;53.42;;;21.10;76.40;;;;;;4978293;28;91244;-77
2023/07/25 12:18:26;;;;;;;85.50;53.40;;;21.20;77.00;;;;;;4976730;28;91595;-77
2023/07/25 12:20:52;;;;;;;87.28;53.47;;;21.20;76.90;;;;;;4981585;28;89839;-77
2023/07/25 12:23:26;;;;;;;88.60;53.72;;;21.30;77.60;;;;;;4981740;28;91065;-77
2023/07/25 12:25:52;;;;;;;86.80;53.75;;;21.30;77.00;;;;;;4981425;28;90117;-78